Latest Coastal Weather Observations for Low Isles

IDQ60701

Issued at 9:42 pm EST Friday 1 July 2016 (issued every 10 minutes, with the page automatically refreshed every 10 minutes)

About coastal observations | Map of coastal stations | Coastal observations for QLD | Marine services | Other Formats
Station Details ID: 031037 Name: LOW ISLES LIGHTHOUSE Lat: -16.38 Lon: 145.56 Height: 2.9 m
Data from the previous 72 hours. | See also: Recent months at Low Isles
Date/Time
EST
Temp
°C
Wind Pressure Rain since
9am
mm
Weather Cloud Vis
km
Sea
Height
m
Swell
Dir  Spd
kts
Gust
kts
hPa Trend Height
m
Period
s
Dir
01/09:30pm 24.1 S 15 16 1018.7 - 0.0 - - - - - - -
01/09:00pm 24.4 SSE 17 19 1018.5 - 0.0 - - - - - - -
01/08:30pm 24.4 SSE 17 19 1018.4 - 0.0 - - - - - - -
01/08:00pm 24.4 SSE 15 17 1018.2 - 0.0 - - - - - - -
01/07:30pm 24.4 SE 15 16 1017.8 - 0.0 - - - - - - -
01/07:00pm 24.4 SE 13 16 1017.5 - 0.0 - - - - - - -
01/06:30pm 24.2 ESE 13 16 1017.4 - 0.0 - - - - - - -
01/06:00pm 24.2 ESE 13 18 1017.0 - 0.0 - - - - - - -
01/05:30pm 24.6 SE 14 17 1017.0 - 0.0 - - - - - - -
01/05:00pm 24.7 SE 14 18 1016.7 - 0.0 - - - - - - -
01/04:30pm 25.3 SE 15 17 1016.5 - 0.0 - - - - - - -
01/04:00pm 25.3 SE 13 16 1016.2 - 0.0 - - - - - - -
01/03:30pm 26.0 SE 12 14 1016.1 - 0.0 - - - - - - -
01/03:00pm 26.7 SE 11 14 1015.9 - 0.0 - - - - - - -
01/02:30pm 26.3 SE 11 13 1016.2 - 0.0 - - - - - - -
01/02:00pm 26.2 SSE 11 13 1016.4 - 0.0 - - - - - - -
01/01:30pm 26.6 SE 12 14 1016.8 - 0.0 - - - - - - -
01/01:00pm 26.2 SE 14 15 1017.2 - 0.0 - - - - - - -
01/12:30pm 26.3 SE 17 18 1017.6 - 0.0 - - - - - - -
01/12:00pm 25.9 SE 19 21 1017.7 - 0.0 - - - - - - -
01/11:30am 25.6 SE 17 21 1018.1 - 0.0 - - - - - - -
01/11:00am 25.2 SE 17 19 1018.3 - 0.0 - - - - - - -
01/10:30am 24.7 SE 16 18 1018.5 - 0.0 - - - - - - -
01/10:00am 24.3 SE 16 19 1018.6 - 0.0 - - - - - - -
01/09:30am 24.0 SE 17 19 1018.7 - 0.0 - - - - - - -
01/09:00am 24.0 SSE 16 18 1018.7 - 0.0 Haze Mostly clear 14 - - - -
01/08:30am 24.0 SSE 16 19 1018.6 - 0.0 - - - - - - -
01/08:00am 24.0 SSE 15 17 1018.4 - 0.0 - - - - - - -
01/07:30am 24.2 SSE 16 17 1018.1 - 0.0 - - - - - - -
01/07:00am 24.2 SSE 13 15 1017.8 - 0.0 - - - - - - -
01/06:30am 24.1 SSE 14 17 1017.6 - 0.0 - - - - - - -
01/06:00am 24.0 S 13 14 1017.1 - 0.0 - - - - - - -
01/05:30am 23.9 SSE 13 15 1017.0 - 0.0 - - - - - - -
01/05:00am 23.9 SSE 13 14 1017.0 - 0.0 - - - - - - -
01/04:30am 23.9 S 12 13 1016.9 - 0.0 - - - - - - -
01/04:00am 23.7 S 12 15 1016.8 - 0.0 - - - - - - -
01/03:30am 23.3 S 8 10 1016.8 - 0.0 - - - - - - -
01/03:00am 23.2 S 8 11 1016.8 - 0.0 - - - - - - -
01/02:30am 22.9 SSW 7 8 1017.1 - 0.0 - - - - - - -
01/02:00am 22.6 WSW 9 10 1017.5 - 0.0 - - - - - - -
01/01:30am 22.5 SW 9 10 1017.8 - 0.0 - - - - - - -
01/01:00am 22.9 SSW 9 10 1018.0 - 0.0 - - - - - - -
01/12:30am 23.4 S 10 13 1018.2 - 0.0 - - - - - - -
01/12:00am 23.4 S 12 14 1018.1 - 0.0 - - - - - - -
 
Date/Time
EST
Temp
°C
Wind Pressure Rain since
9am
mm
Weather Cloud Vis
km
Sea
Height
m
Swell
Dir  Spd
kts
Gust
kts
hPa Trend Height
m
Period
s
Dir
30/11:30pm 23.5 SSE 13 14 1018.5 - 0.0 - - - - - - -
30/11:00pm 23.3 S 8 11 1018.7 - 0.0 - - - - - - -
30/10:30pm 23.4 SW 7 9 1018.7 - 0.0 - - - - - - -
30/10:00pm 23.3 SW 7 8 1018.8 - 0.0 - - - - - - -
30/09:30pm 23.6 SW 8 9 1018.8 - 0.0 - - - - - - -
30/09:00pm 24.5 SSE 13 15 1018.7 - 0.0 - - - - - - -
30/08:30pm 24.5 SSE 13 15 1018.7 - 0.0 - - - - - - -
30/08:00pm 24.5 SSE 13 14 1018.4 - 0.0 - - - - - - -
30/07:30pm 24.7 SSE 13 16 1018.0 - 0.0 - - - - - - -
30/07:00pm 24.6 SSE 14 16 1017.5 - 0.0 - - - - - - -
30/06:30pm 24.6 SE 14 15 1017.3 - 0.0 - - - - - - -
30/06:00pm 24.6 SSE 12 14 1016.9 - 0.0 - - - - - - -
30/05:30pm 24.8 SSE 12 13 1016.8 - 0.0 - - - - - - -
30/05:00pm 24.8 SE 11 13 1016.7 - 0.0 - - - - - - -
30/04:30pm 25.0 SSE 13 14 1016.4 - 0.0 - - - - - - -
30/04:00pm 25.3 SE 14 15 1016.3 - 0.0 - - - - - - -
30/03:30pm 25.2 SSE 15 16 1016.4 - 0.0 - - - - - - -
30/03:00pm 25.5 SE 14 16 1016.4 - 0.0 - - - - - - -
30/02:30pm 25.5 SSE 16 17 1016.6 - 0.0 - - - - - - -
30/02:00pm 25.9 SE 15 17 1017.0 - 0.0 - - - - - - -
30/01:30pm 25.4 SE 14 17 1017.3 - 0.0 - - - - - - -
30/01:00pm 25.3 SSE 15 18 1017.8 - 0.0 - - - - - - -
30/12:30pm 24.8 SSE 15 18 1018.4 - 0.0 - - - - - - -
30/12:00pm 24.4 SSE 14 17 1018.7 - 0.0 - - - - - - -
30/11:30am 24.5 SSE 13 16 1019.1 - 0.0 - - - - - - -
30/11:00am 24.3 SSE 14 16 1019.3 - 0.0 - - - - - - -
30/10:30am 23.9 SSE 16 18 1019.5 - 0.0 - - - - - - -
30/10:00am 24.0 SSE 16 17 1019.7 - 0.0 - - - - - - -
30/09:30am 23.8 SSE 12 16 1019.9 - 0.0 - - - - - - -
30/09:00am 23.6 SSE 14 16 1019.8 - 0.0 Distant precip. Mostly cloudy 10 - - - -
30/08:30am 23.6 SSE 13 16 1019.6 - 0.0 - - - - - - -
30/08:00am 23.6 SSE 14 16 1019.3 - 0.0 - - - - - - -
30/07:30am 23.7 SSE 17 19 1019.0 - 0.0 - - - - - - -
30/07:00am 23.5 SSE 14 17 1018.8 - 0.0 - - - - - - -
30/06:30am 23.6 SSE 15 19 1018.5 - 0.0 - - - - - - -
30/06:00am 23.5 SSE 15 17 1018.1 - 0.0 - - - - - - -
30/05:30am 23.6 SSE 15 18 1018.1 - 0.0 - - - - - - -
30/05:00am 23.4 SSE 17 20 1018.2 - 0.0 - - - - - - -
30/04:30am 23.3 SSE 18 21 1018.1 - 0.0 - - - - - - -
30/04:00am 23.2 SSE 17 19 1017.9 - 0.0 - - - - - - -
30/03:30am 23.2 SSE 18 20 1018.0 - 0.0 - - - - - - -
30/03:00am 23.2 SSE 19 22 1018.1 - 0.0 - - - - - - -
30/02:30am 22.9 SSE 19 22 1018.4 - 0.0 - - - - - - -
30/02:00am 22.6 SSE 18 21 1018.7 - 0.0 - - - - - - -
30/01:30am 22.6 SSE 19 22 1018.9 - 0.0 - - - - - - -
30/01:00am 22.5 SSE 20 23 1019.2 - 0.0 - - - - - - -
30/12:30am 22.3 SSE 16 19 1019.5 - 0.0 - - - - - - -
30/12:00am 22.3 SSE 18 20 1019.5 - 0.0 - - - - - - -
 
Date/Time
EST
Temp
°C
Wind Pressure Rain since
9am
mm
Weather Cloud Vis
km
Sea
Height
m
Swell
Dir  Spd
kts
Gust
kts
hPa Trend Height
m
Period
s
Dir
29/11:30pm 22.1 SSE 17 22 1019.9 - 0.0 - - - - - - -
29/11:00pm 21.9 SSE 19 22 1020.1 - 0.0 - - - - - - -
29/10:30pm 22.1 SSE 20 23 1020.5 - 0.0 - - - - - - -
29/10:00pm 21.9 SSE 18 21 1020.5 - 0.0 - - - - - - -
29/09:30pm 21.8 SSE 18 20 1020.7 - 0.0 - - - - - - -
29/09:00pm 22.0 SSE 19 22 1020.6 - 0.0 - - - - - - -
29/08:30pm 22.2 SSE 19 22 1020.5 - 0.0 - - - - - - -
29/08:00pm 22.5 SSE 19 22 1020.2 - 0.0 - - - - - - -
29/07:30pm 22.7 SSE 23 26 1020.0 - 0.0 - - - - - - -
29/07:00pm 22.5 SE 22 27 1019.7 - 0.0 - - - - - - -
29/06:30pm 22.5 SE 23 27 1019.5 - 0.0 - - - - - - -
29/06:00pm 22.7 SE 22 26 1019.1 - 0.0 - - - - - - -
29/05:30pm 22.8 SE 23 26 1018.8 - 0.0 - - - - - - -
29/05:00pm 22.6 SE 21 26 1018.7 - 0.0 - - - - - - -
29/04:30pm 22.9 SE 22 25 1018.6 - 0.0 - - - - - - -
29/04:00pm 23.2 SE 21 24 1018.4 - 0.0 - - - - - - -
29/03:30pm 23.4 SE 21 25 1018.4 - 0.0 - - - - - - -
29/03:00pm 23.3 SE 21 25 1018.2 - 0.0 - - - - - - -
29/02:30pm 23.3 SE 20 25 1018.5 - 0.0 - - - - - - -
29/02:00pm 23.3 SE 19 25 1018.6 - 0.0 - - - - - - -
29/01:30pm 23.2 SE 21 24 1019.1 - 0.0 - - - - - - -
29/01:00pm 23.1 SE 22 26 1019.5 - 0.0 - - - - - - -
29/12:30pm 22.8 SE 22 30 1020.2 - 0.0 - - - - - - -
29/12:00pm 22.6 SE 21 27 1020.6 - 0.0 - - - - - - -
29/11:30am 22.8 SE 22 26 1021.0 - 0.0 - - - - - - -
29/11:00am 22.4 SE 23 30 1021.2 - 0.0 - - - - - - -
29/10:30am 22.3 SSE 25 29 1021.1 - 0.0 - - - - - - -
29/10:00am 22.5 SE 25 30 1021.0 - 0.0 - - - - - - -
29/09:30am 22.5 SE 19 24 1021.2 - 0.0 - - - - - - -
29/09:00am 22.1 SSE 18 23 1021.0 - 0.0 Haze Partly cloudy 16 - - - -
29/08:30am 21.9 SSE 18 21 1020.8 - 0.0 - - - - - - -
29/08:00am 21.9 SSE 20 23 1020.5 - 0.0 - - - - - - -
29/07:30am 22.1 SSE 20 24 1020.1 - 0.0 - - - - - - -
29/07:00am 22.2 SSE 23 27 1019.7 - 0.0 - - - - - - -
29/06:30am 22.3 SSE 24 28 1019.3 - 0.0 - - - - - - -
29/06:00am 22.6 SSE 23 26 1019.1 - 0.0 - - - - - - -
29/05:30am 22.8 SSE 22 27 1019.1 - 0.0 - - - - - - -
29/05:00am 23.0 SSE 21 25 1019.3 - 0.0 - - - - - - -
29/04:30am 23.2 SSE 20 25 1019.3 - 0.0 - - - - - - -
29/04:00am 23.4 SSE 20 23 1019.3 - 0.0 - - - - - - -
29/03:30am 23.3 S 20 23 1019.2 - 0.0 - - - - - - -
29/03:00am 23.6 SSE 22 27 1019.2 - 0.0 - - - - - - -
29/02:30am 23.6 SSE 23 28 1019.6 - 0.0 - - - - - - -
29/02:00am 23.7 SSE 24 27 1019.8 - 0.0 - - - - - - -
29/01:30am 23.6 SSE 23 29 1020.2 - 0.0 - - - - - - -
29/01:00am 23.6 SSE 23 28 1020.3 - 0.0 - - - - - - -
29/12:30am 23.6 SSE 22 27 1020.5 - 0.0 - - - - - - -
29/12:00am 23.6 SSE 20 26 1020.5 - 0.0 - - - - - - -
 
Date/Time
EST
Temp
°C
Wind Pressure Rain since
9am
mm
Weather Cloud Vis
km
Sea
Height
m
Swell
Dir  Spd
kts
Gust
kts
hPa Trend Height
m
Period
s
Dir
28/11:30pm 23.7 SSE 20 25 1020.6 - 0.0 - - - - - - -
28/11:00pm 23.7 SSE 21 25 1020.5 - 0.0 - - - - - - -
28/10:30pm 23.6 SSE 22 27 1020.4 - 0.0 - - - - - - -
28/10:00pm 23.6 SSE 22 27 1020.3 - 0.0 - - - - - - -

Other Formats:

Comma delimited format used in spreadsheet applications
http://www.bom.gov.au/fwo/IDQ60701/IDQ60701.94285.axf

JavaScript Object Notation format (JSON) in row-major order
http://www.bom.gov.au/fwo/IDQ60701/IDQ60701.94285.json